Time;durP1;ratioP1;P1;durP2;ratioP2;P2;SDS_P1;SDS_P2;PMS_P1;PMS_P2;Temp;Humidity;BMP_temperature;BMP_pressure;BME280_temperature;BME280_humidity;BME280_pressure;Samples;Min_cycle;Max_cycle;Signal;HPM_P1;HPM_P2
2023/03/24 00:00:22;;;;;;;6.65;3.20;;;;;;;11.14;100.00;99779.88;4963499;28;20023;-84
2023/03/24 00:02:50;;;;;;;4.90;3.10;;;;;;;11.15;100.00;99776.28;4970544;28;20025;-83
2023/03/24 00:05:19;;;;;;;5.18;3.03;;;;;;;11.17;100.00;99774.31;4970851;28;20031;-83
2023/03/24 00:07:45;;;;;;;4.82;3.28;;;;;;;11.18;100.00;99759.38;4976840;28;20064;-84
2023/03/24 00:10:14;;;;;;;7.47;3.70;;;;;;;11.18;100.00;99760.19;4982567;28;20050;-84
2023/03/24 00:12:41;;;;;;;5.88;2.88;;;;;;;11.18;100.00;99760.19;4970349;28;20496;-84
2023/03/24 00:15:10;;;;;;;5.85;2.95;;;;;;;11.22;100.00;99750.22;4968446;28;20069;-83
2023/03/24 00:17:35;;;;;;;6.50;3.05;;;;;;;11.25;100.00;99761.31;4965701;28;20030;-84
2023/03/24 00:20:06;;;;;;;6.47;3.35;;;;;;;11.27;100.00;99754.09;4968822;28;20038;-84
2023/03/24 00:22:33;;;;;;;6.07;3.10;;;;;;;11.30;100.00;99761.69;4968034;28;20038;-84
2023/03/24 00:24:58;;;;;;;4.43;3.00;;;;;;;11.33;100.00;99757.94;4969131;28;20034;-83
2023/03/24 00:27:24;;;;;;;5.18;2.83;;;;;;;11.37;100.00;99755.84;4973483;28;20390;-84
2023/03/24 00:29:49;;;;;;;4.03;2.85;;;;;;;11.39;100.00;99757.34;4985089;28;20112;-84
2023/03/24 00:32:16;;;;;;;5.30;3.05;;;;;;;11.44;100.00;99757.75;4988242;28;20653;-83
2023/03/24 00:34:42;;;;;;;3.88;2.40;;;;;;;11.46;100.00;99741.78;5014493;28;20160;-83
2023/03/24 00:37:07;;;;;;;6.68;2.80;;;;;;;11.55;100.00;99735.63;4967100;28;20023;-84
2023/03/24 00:39:33;;;;;;;4.38;2.70;;;;;;;11.56;100.00;99737.28;4985183;28;20870;-84
2023/03/24 00:42:00;;;;;;;3.28;2.65;;;;;;;11.60;100.00;99733.38;5018839;28;20170;-84
2023/03/24 00:44:26;;;;;;;3.30;2.50;;;;;;;11.63;100.00;99727.84;4992192;28;20037;-84
2023/03/24 00:46:57;;;;;;;4.18;2.60;;;;;;;11.66;100.00;99717.00;4988623;28;20446;-84
2023/03/24 00:49:41;;;;;;;4.88;2.50;;;;;;;11.72;100.00;99726.97;4990985;28;20091;-84
2023/03/24 00:52:14;;;;;;;6.22;2.97;;;;;;;11.76;100.00;99717.78;4980099;28;20027;-84
2023/03/24 00:54:40;;;;;;;3.67;2.30;;;;;;;11.76;100.00;99712.50;4989586;28;20027;-79
2023/03/24 00:57:07;;;;;;;2.83;2.10;;;;;;;11.78;100.00;99704.47;4991874;28;20497;-79
2023/03/24 00:59:41;;;;;;;2.90;2.20;;;;;;;11.77;100.00;99711.53;4988534;28;20174;-84
2023/03/24 01:02:10;;;;;;;3.90;2.15;;;;;;;11.81;100.00;99705.00;4989798;28;20105;-83
2023/03/24 01:04:38;;;;;;;3.88;2.58;;;;;;;11.80;100.00;99697.25;4986318;28;20032;-82
2023/03/24 01:07:06;;;;;;;4.30;2.60;;;;;;;11.80;100.00;99691.97;4989927;28;20018;-84
2023/03/24 01:09:35;;;;;;;4.60;2.38;;;;;;;11.79;100.00;99699.06;4967239;28;20456;-85
2023/03/24 01:12:02;;;;;;;4.57;2.60;;;;;;;11.80;100.00;99697.25;4971709;28;20019;-83
2023/03/24 01:14:28;;;;;;;3.65;2.40;;;;;;;11.79;100.00;99701.69;4972712;28;20034;-84
2023/03/24 01:16:53;;;;;;;4.18;2.53;;;;;;;11.78;100.00;99700.03;4984284;28;20037;-83
2023/03/24 01:19:19;;;;;;;3.65;2.42;;;;;;;11.75;100.00;99695.03;4984546;28;20507;-85
2023/03/24 01:21:44;;;;;;;4.90;2.22;;;;;;;11.74;100.00;99693.38;4987058;28;20478;-84
2023/03/24 01:24:10;;;;;;;4.45;2.40;;;;;;;11.73;100.00;99686.47;4984985;28;20030;-84
2023/03/24 01:26:35;;;;;;;4.18;2.63;;;;;;;11.70;100.00;99688.56;4976955;28;20106;-84
2023/03/24 01:29:01;;;;;;;4.78;2.65;;;;;;;11.66;100.00;99685.41;4971930;28;20470;-79
2023/03/24 01:31:26;;;;;;;4.88;2.80;;;;;;;11.63;100.00;99679.59;4973887;28;20432;-85
2023/03/24 01:33:55;;;;;;;4.32;2.40;;;;;;;11.58;100.00;99680.84;4989726;28;20084;-84
2023/03/24 01:36:20;;;;;;;3.17;2.40;;;;;;;11.54;100.00;99666.31;4986315;28;20030;-83
2023/03/24 01:38:46;;;;;;;3.95;2.60;;;;;;;11.58;100.00;99677.38;5005746;28;20117;-83
2023/03/24 01:41:11;;;;;;;3.83;2.60;;;;;;;11.59;100.00;99671.13;4991220;28;20030;-83
2023/03/24 01:43:36;;;;;;;4.05;2.65;;;;;;;11.58;100.00;99662.41;4962080;28;20046;-83
2023/03/24 01:46:18;;;;;;;3.40;2.45;;;;;;;11.59;100.00;99665.88;4971984;28;20030;-83
2023/03/24 01:49:03;;;;;;;4.00;2.65;;;;;;;11.59;100.00;99664.06;5022150;28;20041;-84
2023/03/24 01:51:34;;;;;;;5.05;2.88;;;;;;;11.58;100.00;99664.22;4984566;28;20085;-84
2023/03/24 01:54:26;;;;;;;3.75;2.60;;;;;;;11.58;100.00;99657.13;4988341;28;20038;-85
2023/03/24 01:57:00;;;;;;;3.13;2.83;;;;;;;11.57;100.00;99650.22;4988325;28;20046;-84
2023/03/24 01:59:29;;;;;;;5.53;2.80;;;;;;;11.55;100.00;99638.16;4987021;28;20092;-79
2023/03/24 02:02:01;;;;;;;5.20;2.88;;;;;;;11.54;100.00;99639.16;4972920;28;20023;-85
2023/03/24 02:04:39;;;;;;;4.22;2.70;;;;;;;11.52;100.00;99646.38;4981528;28;20113;-85
2023/03/24 02:07:33;;;;;;;5.32;2.88;;;;;;;11.55;100.00;99646.91;4987674;28;20026;-86
2023/03/24 02:10:04;;;;;;;5.30;2.60;;;;;;;11.53;100.00;99638.31;4987384;28;20050;-85
2023/03/24 02:12:31;;;;;;;5.03;3.00;;;;;;;11.53;100.00;99640.13;4988022;28;20149;-85
2023/03/24 02:14:57;;;;;;;4.63;2.97;;;;;;;11.51;100.00;99637.66;4986326;28;20027;-84
2023/03/24 02:17:25;;;;;;;5.65;3.15;;;;;;;11.51;100.00;99639.44;4980410;28;20080;-85
2023/03/24 02:20:13;;;;;;;4.68;3.22;;;;;;;11.50;100.00;99649.16;4960075;28;20045;-84
2023/03/24 02:22:54;;;;;;;5.70;3.30;;;;;;;11.51;100.00;99649.97;4971825;28;20081;-85
2023/03/24 02:25:37;;;;;;;5.05;3.28;;;;;;;11.51;100.00;99647.34;4989898;28;20062;-84
2023/03/24 02:28:25;;;;;;;3.78;3.00;;;;;;;11.50;100.00;99643.88;4987079;28;20031;-84
2023/03/24 02:31:27;;;;;;;4.65;3.30;;;;;;;11.51;100.00;99644.72;4985501;28;20030;-83
2023/03/24 02:34:14;;;;;;;3.35;3.05;;;;;;;11.52;100.00;99649.00;4990077;28;20034;-83
2023/03/24 02:37:11;;;;;;;3.90;3.20;;;;;;;11.51;100.00;99652.63;4990057;28;20018;-82
2023/03/24 02:39:49;;;;;;;5.47;3.28;;;;;;;11.50;100.00;99645.69;4968403;28;20181;-83
2023/03/24 02:42:41;;;;;;;5.70;3.17;;;;;;;11.50;100.00;99635.16;4971367;28;20085;-83
2023/03/24 02:45:34;;;;;;;4.65;3.38;;;;;;;11.49;100.00;99646.66;4990917;28;20041;-82
2023/03/24 02:48:15;;;;;;;4.88;3.20;;;;;;;11.51;100.00;99652.63;4987611;28;20080;-82
2023/03/24 02:50:50;;;;;;;5.15;3.22;;;;;;;11.50;100.00;99661.50;4987576;28;20475;-78
2023/03/24 02:53:32;;;;;;;6.03;3.50;;;;;;;11.51;100.00;99671.06;5004903;28;20022;-82
2023/03/24 02:56:03;;;;;;;3.95;3.05;;;;;;;11.51;100.00;99660.53;4967847;28;20035;-82
2023/03/24 02:58:46;;;;;;;4.15;3.20;;;;;;;11.50;100.00;99686.03;4988991;28;20041;-81
2023/03/24 03:01:31;;;;;;;5.07;3.17;;;;;;;11.50;100.00;99698.38;4986426;28;20933;-82
2023/03/24 03:04:02;;;;;;;4.25;3.33;;;;;;;11.50;100.00;99707.09;4987487;28;20390;-78
2023/03/24 03:06:35;;;;;;;4.28;2.88;;;;;;;11.49;100.00;99704.63;5002844;28;20034;-82
2023/03/24 03:09:16;;;;;;;3.47;2.47;;;;;;;11.43;100.00;99724.47;5000810;28;20074;-82
2023/03/24 03:11:48;;;;;;;2.70;2.50;;;;;;;11.42;100.00;99719.34;4968984;28;20065;-82
2023/03/24 03:14:19;;;;;;;5.53;2.30;;;;;;;11.39;100.00;99723.13;4983991;28;20124;-82
2023/03/24 03:16:52;;;;;;;5.20;2.28;;;;;;;11.33;100.00;99717.59;4988198;28;20025;-82
2023/03/24 03:19:23;;;;;;;;;;;;;;;11.42;100.00;99737.78;4987047;28;20033;-82
2023/03/24 03:21:54;;;;;;;2.70;2.13;;;;;;;11.23;100.00;99755.34;4988894;28;19913;-82
2023/03/24 03:24:28;;;;;;;2.70;1.63;;;;;;;11.10;100.00;99752.19;4989039;28;20034;-82
2023/03/24 03:26:59;;;;;;;3.00;1.73;;;;;;;10.98;100.00;99742.81;4986936;28;20046;-81
2023/03/24 03:29:27;;;;;;;4.18;1.73;;;;;;;10.86;100.00;99754.50;4985879;28;20026;-81
2023/03/24 03:31:59;;;;;;;3.10;1.40;;;;;;;10.76;100.00;99764.19;4963427;28;20038;-82
2023/03/24 03:34:44;;;;;;;4.78;1.50;;;;;;;10.70;100.00;99780.53;5010050;28;20414;-83
2023/03/24 03:37:33;;;;;;;3.55;1.63;;;;;;;10.65;100.00;99797.56;4985429;28;20069;-80
2023/03/24 03:40:04;;;;;;;3.88;1.40;;;;;;;10.58;100.00;99812.25;4987103;28;20034;-80
2023/03/24 03:42:30;;;;;;;2.03;1.10;;;;;;;10.50;100.00;99796.34;4986668;28;20033;-82
2023/03/24 03:44:56;;;;;;;8.43;1.38;;;;;;;10.49;100.00;99810.47;4987840;28;20022;-80
2023/03/24 03:47:21;;;;;;;4.18;1.80;;;;;;;10.49;100.00;99820.97;4982504;28;20528;-82
2023/03/24 03:49:48;;;;;;;4.65;2.58;;;;;;;10.46;100.00;99831.78;4975034;28;20026;-83
2023/03/24 03:52:15;;;;;;;9.82;4.20;;;;;;;10.38;100.00;99821.09;4985010;28;20034;-82
2023/03/24 03:54:42;;;;;;;10.50;4.57;;;;;;;10.27;100.00;99823.84;4985534;28;20035;-82
2023/03/24 03:57:09;;;;;;;9.60;4.50;;;;;;;10.19;100.00;99828.94;4987730;28;20483;-83
2023/03/24 03:59:36;;;;;;;8.07;3.58;;;;;;;10.10;100.00;99841.09;5014844;28;20029;-82
2023/03/24 04:02:32;;;;;;;13.68;4.00;;;;;;;10.07;100.00;99843.16;4980992;28;20030;-82
2023/03/24 04:05:13;;;;;;;8.00;2.90;;;;;;;9.95;100.00;99837.16;4974426;28;20034;-82
2023/03/24 04:08:15;;;;;;;9.07;3.00;;;;;;;9.90;100.00;99855.97;4987447;28;20034;-82
2023/03/24 04:10:50;;;;;;;6.68;2.70;;;;;;;9.85;100.00;99866.03;4986624;28;20097;-83
2023/03/24 04:13:35;;;;;;;5.43;2.53;;;;;;;9.79;100.00;99874.47;4986158;28;20034;-83
2023/03/24 04:16:16;;;;;;;7.50;2.60;;;;;;;9.74;100.00;99876.66;4989862;28;20438;-83
2023/03/24 04:18:57;;;;;;;6.65;2.63;;;;;;;9.71;100.00;99883.00;4991420;28;20046;-83
2023/03/24 04:21:32;;;;;;;6.68;2.83;;;;;;;9.66;100.00;99897.50;4971687;28;20027;-83
2023/03/24 04:24:11;;;;;;;7.20;2.40;;;;;;;9.65;100.00;99903.72;4973961;28;20046;-83
2023/03/24 04:26:47;;;;;;;8.05;2.30;;;;;;;9.63;100.00;99895.97;5000600;28;20086;-83
2023/03/24 04:29:45;;;;;;;9.68;2.30;;;;;;;9.60;100.00;99895.38;4989046;28;20034;-83
2023/03/24 04:32:23;;;;;;;6.18;2.13;;;;;;;9.57;100.00;99899.09;4990351;28;20034;-83
2023/03/24 04:35:00;;;;;;;13.00;2.83;;;;;;;9.53;100.00;99907.38;4987947;28;20034;-82
2023/03/24 04:37:31;;;;;;;8.63;2.08;;;;;;;9.47;100.00;99913.13;4968569;28;20027;-82
2023/03/24 04:40:00;;;;;;;10.63;2.80;;;;;;;9.43;100.00;99916.03;4974912;28;20061;-82
2023/03/24 04:42:33;;;;;;;7.93;2.45;;;;;;;9.36;100.00;99920.13;4988693;28;20060;-82
2023/03/24 04:44:59;;;;;;;12.82;2.95;;;;;;;9.35;100.00;99928.97;5021588;28;20020;-82
2023/03/24 04:47:30;;;;;;;13.52;3.03;;;;;;;9.33;100.00;99936.13;4992173;28;20030;-83
2023/03/24 04:50:01;;;;;;;9.38;2.97;;;;;;;9.28;100.00;99933.06;4991378;28;20022;-83
2023/03/24 04:52:26;;;;;;;7.50;2.70;;;;;;;9.24;100.00;99929.03;4983983;28;20043;-83
2023/03/24 04:54:52;;;;;;;13.63;3.50;;;;;;;9.21;100.00;99939.78;5000853;28;20034;-78
2023/03/24 04:57:17;;;;;;;14.10;3.55;;;;;;;9.19;100.00;99928.56;4977624;28;20100;-78
2023/03/24 04:59:43;;;;;;;10.18;3.50;;;;;;;9.17;100.00;99927.84;4990266;28;20034;-81
2023/03/24 05:02:08;;;;;;;10.20;3.40;;;;;;;9.13;100.00;99944.81;4991154;28;20022;-82
2023/03/24 05:04:36;;;;;;;14.07;3.58;;;;;;;9.13;100.00;99943.97;4991960;28;20033;-83
2023/03/24 05:07:03;;;;;;;12.88;3.78;;;;;;;9.13;100.00;99943.97;4992511;28;20018;-82
2023/03/24 05:09:30;;;;;;;13.75;3.88;;;;;;;9.12;100.00;99937.91;4975355;28;20047;-83
2023/03/24 05:11:56;;;;;;;11.52;3.75;;;;;;;9.09;100.00;99949.47;4985002;28;20026;-83
2023/03/24 05:14:22;;;;;;;10.98;3.60;;;;;;;9.07;100.00;99955.81;4993401;28;20398;-83
2023/03/24 05:16:48;;;;;;;11.65;3.20;;;;;;;9.04;100.00;99962.16;4992627;28;20104;-83
2023/03/24 05:19:14;;;;;;;9.95;3.08;;;;;;;8.98;100.00;99964.44;4989402;28;20030;-83
2023/03/24 05:21:40;;;;;;;13.43;3.50;;;;;;;8.96;100.00;99964.56;5026668;28;20042;-83
2023/03/24 05:24:06;;;;;;;11.30;3.00;;;;;;;8.95;100.00;99978.66;4991259;28;20026;-83
2023/03/24 05:26:32;;;;;;;11.10;3.20;;;;;;;8.93;100.00;99971.88;4971208;28;20548;-83
2023/03/24 05:28:57;;;;;;;11.00;3.20;;;;;;;8.94;100.00;99976.97;4986379;28;20026;-83
2023/03/24 05:31:23;;;;;;;7.03;2.35;;;;;;;8.94;100.00;99976.16;4992716;28;20026;-83
2023/03/24 05:33:48;;;;;;;10.93;3.08;;;;;;;8.94;100.00;99978.78;4986000;28;20110;-83
2023/03/24 05:36:14;;;;;;;11.55;2.80;;;;;;;8.94;100.00;99986.66;4989996;28;20038;-83
2023/03/24 05:38:39;;;;;;;14.88;3.67;;;;;;;8.96;100.00;99979.47;4985887;28;20457;-83
2023/03/24 05:41:05;;;;;;;10.05;2.97;;;;;;;8.94;100.00;99997.13;4985370;28;20037;-83
2023/03/24 05:43:31;;;;;;;12.38;3.00;;;;;;;8.96;100.00;99989.97;4983024;28;20031;-79
2023/03/24 05:45:59;;;;;;;13.85;3.53;;;;;;;8.97;100.00;99996.88;4970587;28;20046;-83
2023/03/24 05:48:24;;;;;;;12.73;3.08;;;;;;;8.95;100.00;99998.81;4976948;28;20027;-84
2023/03/24 05:50:54;;;;;;;13.40;3.65;;;;;;;8.95;100.00;100004.88;4971177;28;20019;-82
2023/03/24 05:53:19;;;;;;;12.45;3.80;;;;;;;8.96;100.00;100003.09;4974337;28;20077;-83
2023/03/24 05:55:45;;;;;;;14.10;3.50;;;;;;;8.97;100.00;100010.84;4971745;28;20047;-84
2023/03/24 05:58:11;;;;;;;13.73;4.03;;;;;;;8.98;100.00;100015.13;4978647;28;20117;-83
2023/03/24 06:00:37;;;;;;;10.98;3.28;;;;;;;9.01;100.00;100009.63;4983543;28;20436;-82
2023/03/24 06:03:02;;;;;;;10.40;3.20;;;;;;;9.03;100.00;100012.13;4971722;28;20467;-82
2023/03/24 06:05:27;;;;;;;14.02;3.55;;;;;;;9.06;100.00;100009.25;4969169;28;20079;-83
2023/03/24 06:07:57;;;;;;;15.00;3.75;;;;;;;9.07;100.00;100008.31;4980323;28;20047;-83
2023/03/24 06:10:27;;;;;;;18.67;3.40;;;;;;;9.09;100.00;100003.75;4988240;28;20514;-83
2023/03/24 06:12:54;;;;;;;12.27;3.13;;;;;;;9.09;100.00;100012.47;4979577;28;20055;-83
2023/03/24 06:15:21;;;;;;;15.55;3.05;;;;;;;9.11;100.00;100014.97;4972238;28;20022;-82
2023/03/24 06:17:47;;;;;;;13.10;3.30;;;;;;;9.11;100.00;100015.78;4972215;28;20089;-83
2023/03/24 06:20:14;;;;;;;13.63;2.78;;;;;;;9.11;100.00;100021.03;4969340;28;20443;-82
2023/03/24 06:22:43;;;;;;;12.05;3.10;;;;;;;9.14;100.00;100025.22;4971533;28;20170;-83
2023/03/24 06:25:09;;;;;;;14.13;3.22;;;;;;;9.17;100.00;100030.19;4970051;28;20069;-82
2023/03/24 06:27:35;;;;;;;14.10;3.00;;;;;;;9.19;100.00;100038.78;5000858;28;20023;-82
2023/03/24 06:30:01;;;;;;;13.98;3.00;;;;;;;9.20;100.00;100037.81;4971856;28;20618;-83
2023/03/24 06:32:27;;;;;;;12.93;3.13;;;;;;;9.19;100.00;100038.78;4975660;28;20117;-82
2023/03/24 06:34:53;;;;;;;11.95;2.65;;;;;;;9.23;100.00;100050.72;4969897;28;20050;-82
2023/03/24 06:37:21;;;;;;;13.80;3.15;;;;;;;9.21;100.00;100047.41;4970032;28;20053;-82
2023/03/24 06:39:47;;;;;;;13.90;3.35;;;;;;;9.21;100.00;100047.41;4968584;28;20081;-83
2023/03/24 06:42:13;;;;;;;17.23;3.60;;;;;;;9.23;100.00;100055.16;4969774;28;20407;-83
2023/03/24 06:44:39;;;;;;;12.73;3.13;;;;;;;9.32;100.00;100049.16;4971929;28;20023;-83
2023/03/24 06:47:04;;;;;;;15.73;3.40;;;;;;;9.39;100.00;100055.56;5000139;28;20081;-82
2023/03/24 06:49:33;;;;;;;19.98;3.88;;;;;;;9.45;100.00;100048.97;4982461;28;20019;-83
2023/03/24 06:51:59;;;;;;;17.83;3.45;;;;;;;9.50;99.95;100057.28;4969049;28;20727;-83
2023/03/24 06:54:25;;;;;;;15.15;3.40;;;;;;;9.53;99.89;100065.75;4971595;28;20069;-83
2023/03/24 06:56:56;;;;;;;17.23;3.83;;;;;;;9.55;100.00;100055.13;5001853;28;20034;-83
2023/03/24 06:59:24;;;;;;;16.15;3.38;;;;;;;9.58;100.00;100057.50;4970424;28;20031;-83
2023/03/24 07:01:50;;;;;;;16.58;3.88;;;;;;;9.65;100.00;100061.31;4971094;28;20027;-83
2023/03/24 07:04:16;;;;;;;14.63;3.58;;;;;;;9.70;99.70;100051.25;4970398;28;20026;-81
2023/03/24 07:06:42;;;;;;;16.10;3.67;;;;;;;9.74;98.79;100055.28;4972108;28;20031;-82
2023/03/24 07:09:09;;;;;;;18.88;3.83;;;;;;;9.79;99.00;100058.34;4955889;28;20127;-80
2023/03/24 07:11:34;;;;;;;16.92;3.67;;;;;;;9.87;98.17;100055.91;4952684;28;20054;-80
2023/03/24 07:13:59;;;;;;;12.68;3.15;;;;;;;9.99;98.58;100059.31;4970176;28;20065;-80
2023/03/24 07:16:25;;;;;;;15.30;3.47;;;;;;;10.08;97.31;100069.06;4973845;28;20041;-79
2023/03/24 07:18:53;;;;;;;15.02;3.53;;;;;;;10.15;96.44;100064.13;4983839;28;20030;-78
2023/03/24 07:21:19;;;;;;;13.63;3.05;;;;;;;10.22;96.21;100075.81;4983284;28;20532;-77
2023/03/24 07:23:45;;;;;;;15.07;4.13;;;;;;;10.27;95.67;100073.63;4961394;28;20029;-78
2023/03/24 07:26:11;;;;;;;13.75;3.38;;;;;;;10.39;95.95;100069.94;4970840;28;20258;-78
2023/03/24 07:28:36;;;;;;;14.93;3.47;;;;;;;10.54;95.39;100075.69;4968510;28;20203;-80
2023/03/24 07:31:03;;;;;;;14.13;3.38;;;;;;;10.61;94.32;100088.19;4969300;28;20061;-81
2023/03/24 07:33:29;;;;;;;13.05;3.17;;;;;;;10.71;93.96;100087.38;4975647;28;20550;-78
2023/03/24 07:35:56;;;;;;;12.60;2.90;;;;;;;10.82;94.03;100092.56;4983533;28;20550;-83
2023/03/24 07:38:25;;;;;;;17.30;3.67;;;;;;;10.78;93.75;100091.13;4966770;28;20601;-84
2023/03/24 07:40:51;;;;;;;14.50;3.80;;;;;;;10.82;93.44;100100.47;4988094;28;20042;-83
2023/03/24 07:43:17;;;;;;;17.02;3.55;;;;;;;10.97;93.27;100102.56;5008378;28;20042;-83
2023/03/24 07:45:44;;;;;;;19.35;3.53;;;;;;;11.08;91.63;100106.06;4969965;28;20023;-82
2023/03/24 07:48:11;;;;;;;13.52;3.15;;;;;;;11.19;91.48;100098.88;4969715;28;20114;-83
2023/03/24 07:50:36;;;;;;;17.17;3.78;;;;;;;11.22;90.94;100103.91;4999822;28;20030;-83
2023/03/24 07:53:02;;;;;;;17.58;3.67;;;;;;;11.24;91.39;100099.31;4991718;28;20053;-84
2023/03/24 07:55:27;;;;;;;14.32;3.50;;;;;;;11.27;90.98;100101.69;4980842;28;20026;-83
2023/03/24 07:57:53;;;;;;;13.95;3.28;;;;;;;11.30;90.84;100106.69;4965320;28;20479;-83
2023/03/24 08:00:19;;;;;;;15.80;4.10;;;;;;;11.24;89.91;100107.22;4988493;28;20042;-84
2023/03/24 08:02:48;;;;;;;16.13;3.53;;;;;;;11.23;90.67;100112.63;4994668;28;21647;-84
2023/03/24 08:05:14;;;;;;;12.18;3.17;;;;;;;11.39;90.75;100118.19;4974849;28;20628;-84
2023/03/24 08:07:41;;;;;;;13.52;2.97;;;;;;;11.50;90.60;100117.22;4991188;28;20541;-84
2023/03/24 08:10:12;;;;;;;14.00;3.38;;;;;;;11.51;89.79;100117.09;4992517;28;20438;-79
2023/03/24 08:12:39;;;;;;;13.35;3.45;;;;;;;11.53;88.56;100123.03;4992384;28;20022;-84
2023/03/24 08:15:06;;;;;;;22.92;4.50;;;;;;;11.50;89.08;100125.13;4990509;28;20120;-84
2023/03/24 08:17:32;;;;;;;17.83;3.67;;;;;;;11.46;88.67;100121.94;4992879;28;20031;-84
2023/03/24 08:19:57;;;;;;;17.20;3.70;;;;;;;11.47;87.43;100120.97;5006973;28;20038;-83
2023/03/24 08:22:23;;;;;;;12.15;3.35;;;;;;;11.63;87.63;100128.34;4983047;28;20058;-83
2023/03/24 08:24:48;;;;;;;10.77;2.85;;;;;;;11.69;87.00;100133.06;4973274;28;20041;-83
2023/03/24 08:27:16;;;;;;;16.38;3.60;;;;;;;11.96;87.91;100129.75;4971009;28;20022;-83
2023/03/24 08:29:42;;;;;;;14.20;3.10;;;;;;;12.22;85.62;100130.00;4972578;28;20519;-83
2023/03/24 08:32:08;;;;;;;11.82;3.10;;;;;;;12.51;83.24;100132.59;4972968;28;20039;-78
2023/03/24 08:34:33;;;;;;;13.23;3.40;;;;;;;12.72;82.21;100140.28;4972363;28;20030;-83
2023/03/24 08:36:59;;;;;;;15.82;3.25;;;;;;;12.89;81.17;100128.97;4962647;28;20361;-83
2023/03/24 08:39:24;;;;;;;15.15;3.92;;;;;;;12.86;79.87;100134.53;4952578;28;20023;-83
2023/03/24 08:41:50;;;;;;;13.00;3.47;;;;;;;12.71;80.11;100142.09;4953331;28;20050;-83
2023/03/24 08:44:16;;;;;;;11.95;2.92;;;;;;;12.71;79.33;100133.34;4953424;28;20035;-83
2023/03/24 08:46:41;;;;;;;14.45;3.03;;;;;;;12.76;79.93;100142.47;4954562;28;20083;-83
2023/03/24 08:49:07;;;;;;;9.98;2.65;;;;;;;12.70;80.21;100142.22;4963862;28;20035;-83
2023/03/24 08:51:33;;;;;;;13.35;3.22;;;;;;;12.70;81.56;100144.88;4973614;28;20027;-84
2023/03/24 08:54:00;;;;;;;13.43;3.15;;;;;;;12.52;79.22;100142.16;4973332;28;20026;-84
2023/03/24 08:56:26;;;;;;;12.45;3.10;;;;;;;12.31;80.61;100155.53;4974126;28;20059;-83
2023/03/24 08:58:52;;;;;;;10.73;2.55;;;;;;;12.17;80.85;100150.69;4973691;28;20105;-77
2023/03/24 09:01:19;;;;;;;12.05;2.92;;;;;;;11.96;81.78;100152.63;4973002;28;20034;-82
2023/03/24 09:03:45;;;;;;;12.23;3.30;;;;;;;11.84;82.54;100158.06;4971056;28;20039;-83
2023/03/24 09:06:11;;;;;;;13.13;3.03;;;;;;;11.86;82.28;100160.56;4970635;28;20317;-83
2023/03/24 09:08:37;;;;;;;10.57;2.83;;;;;;;11.86;81.89;100150.84;4989048;28;20050;-83
2023/03/24 09:11:04;;;;;;;14.15;2.80;;;;;;;11.82;82.35;100149.47;4992881;28;20025;-84
2023/03/24 09:13:30;;;;;;;9.90;2.75;;;;;;;11.84;82.83;100160.69;4992880;28;20053;-84
2023/03/24 09:16:02;;;;;;;14.35;3.08;;;;;;;12.00;83.07;100160.13;4984167;28;20022;-84
2023/03/24 09:18:28;;;;;;;13.18;3.33;;;;;;;12.33;81.53;100161.50;4973168;28;20035;-83
2023/03/24 09:20:54;;;;;;;12.88;2.92;;;;;;;12.41;79.91;100166.06;4966412;28;20452;-83
2023/03/24 09:23:20;;;;;;;15.10;3.28;;;;;;;12.28;80.93;100169.00;4971330;28;20098;-77
2023/03/24 09:25:48;;;;;;;14.73;3.10;;;;;;;12.17;82.80;100174.44;4971617;28;20038;-77
2023/03/24 09:28:15;;;;;;;17.50;3.30;;;;;;;12.05;83.82;100183.47;4970969;28;20137;-77
2023/03/24 09:30:40;;;;;;;17.80;3.47;;;;;;;11.89;83.75;100184.00;4972152;28;20025;-82
2023/03/24 09:33:06;;;;;;;11.25;2.88;;;;;;;11.89;84.30;100189.28;5002686;28;20027;-83
2023/03/24 09:35:31;;;;;;;13.30;3.13;;;;;;;11.97;84.38;100181.50;4971769;28;20027;-77
2023/03/24 09:37:57;;;;;;;11.98;2.78;;;;;;;12.37;83.66;100181.34;4963819;28;20030;-78
2023/03/24 09:40:25;;;;;;;17.88;3.38;;;;;;;12.69;82.29;100186.28;5003134;28;20027;-83
2023/03/24 09:43:02;;;;;;;12.30;2.83;;;;;;;12.75;82.70;100200.69;4971916;28;20535;-84
2023/03/24 09:45:31;;;;;;;11.50;3.17;;;;;;;12.68;82.36;100194.34;4971713;28;20023;-83
2023/03/24 09:48:06;;;;;;;9.90;3.13;;;;;;;12.65;82.21;100198.09;5003052;28;20495;-83
2023/03/24 09:50:40;;;;;;;13.45;3.50;;;;;;;12.57;82.01;100191.88;4971093;28;20031;-83
2023/03/24 09:53:18;;;;;;;12.27;3.13;;;;;;;12.47;81.67;100192.72;4967897;28;20490;-84
2023/03/24 09:55:44;;;;;;;15.52;3.53;;;;;;;12.61;82.51;100188.78;4952412;29;20035;-83
2023/03/24 09:58:15;;;;;;;13.02;2.70;;;;;;;12.66;81.67;100191.84;4951524;28;20042;-83
2023/03/24 10:00:41;;;;;;;12.35;2.80;;;;;;;12.58;80.35;100188.25;4952544;28;20029;-83
2023/03/24 10:03:20;;;;;;;9.63;2.75;;;;;;;12.51;80.91;100178.28;4983149;28;20019;-83
2023/03/24 10:06:03;;;;;;;13.02;3.10;;;;;;;12.47;82.05;100187.44;4952680;28;20027;-83
2023/03/24 10:08:49;;;;;;;12.25;3.00;;;;;;;12.43;81.50;100201.91;4983443;28;20050;-84
2023/03/24 10:11:32;;;;;;;11.07;3.10;;;;;;;12.48;79.53;100185.63;4967957;28;20139;-84
2023/03/24 10:14:00;;;;;;;11.48;2.92;;;;;;;12.49;77.77;100196.06;4971382;28;20067;-82
2023/03/24 10:16:44;;;;;;;11.80;3.15;;;;;;;12.56;78.05;100193.69;4983950;28;20037;-83
2023/03/24 10:19:37;;;;;;;12.43;2.55;;;;;;;12.65;79.28;100200.72;4990935;28;20445;-83
2023/03/24 10:22:20;;;;;;;11.65;3.03;;;;;;;12.55;79.04;100200.75;4991273;28;20018;-83
2023/03/24 10:25:06;;;;;;;10.50;2.65;;;;;;;12.67;78.22;100198.78;4991491;28;20029;-84
2023/03/24 10:27:52;;;;;;;10.82;2.90;;;;;;;12.73;77.63;100208.75;4987600;28;20455;-84
2023/03/24 10:30:25;;;;;;;9.50;2.35;;;;;;;13.77;72.80;100198.88;4970570;28;20030;-82
2023/03/24 10:32:51;;;;;;;;;;;;;;;14.46;74.53;100192.06;4972041;28;20085;-83
2023/03/24 10:35:23;;;;;;;9.13;2.40;;;;;;;16.08;63.97;100191.94;5003136;28;19921;-84
2023/03/24 10:37:51;;;;;;;12.40;2.33;;;;;;;15.87;61.08;100181.78;5003546;28;20369;-82
2023/03/24 10:40:19;;;;;;;12.77;2.80;;;;;;;15.10;64.32;100204.03;5002312;28;20111;-82
2023/03/24 10:42:47;;;;;;;9.70;2.28;;;;;;;14.47;65.17;100186.63;5002998;28;20077;-83
2023/03/24 10:45:26;;;;;;;11.43;2.65;;;;;;;14.19;68.18;100188.50;4963391;28;20030;-82
2023/03/24 10:47:58;;;;;;;11.55;2.20;;;;;;;13.92;68.59;100193.88;4970937;28;20479;-83
2023/03/24 10:50:29;;;;;;;9.23;2.65;;;;;;;13.68;68.59;100187.38;4971289;28;20480;-82
2023/03/24 10:52:56;;;;;;;12.95;2.83;;;;;;;13.55;70.12;100186.06;4971271;28;20027;-83
2023/03/24 10:55:28;;;;;;;12.88;2.75;;;;;;;13.29;69.82;100194.69;4969624;28;20030;-83
2023/03/24 10:57:56;;;;;;;10.10;2.53;;;;;;;13.20;70.43;100200.00;4970934;28;20029;-77
2023/03/24 11:00:30;;;;;;;10.57;2.33;;;;;;;13.51;72.24;100188.16;4970402;28;20357;-83
2023/03/24 11:03:10;;;;;;;11.00;2.50;;;;;;;13.86;71.38;100179.44;4995907;28;20026;-83
2023/03/24 11:05:38;;;;;;;8.88;2.50;;;;;;;13.92;69.22;100185.94;4970173;28;20189;-83
2023/03/24 11:08:16;;;;;;;10.40;3.00;;;;;;;13.79;70.83;100184.50;4969478;28;20121;-83
2023/03/24 11:10:42;;;;;;;11.23;2.63;;;;;;;13.97;69.94;100187.16;5001140;28;20507;-82
2023/03/24 11:13:25;;;;;;;10.55;2.60;;;;;;;13.95;69.95;100188.28;4970313;28;20483;-83
2023/03/24 11:15:55;;;;;;;;;;;;;;;14.09;72.81;100179.84;4977281;28;20050;-83
2023/03/24 11:18:24;;;;;;;10.52;2.88;;;;;;;14.13;68.98;100190.94;5009640;28;19918;-78
2023/03/24 11:20:55;;;;;;;8.05;2.42;;;;;;;14.11;68.49;100186.63;4970665;28;20026;-83
2023/03/24 11:23:26;;;;;;;10.93;2.70;;;;;;;14.08;67.09;100186.94;4969309;28;20069;-83
2023/03/24 11:26:04;;;;;;;9.80;2.38;;;;;;;13.99;66.57;100192.28;4969027;28;20491;-82
2023/03/24 11:28:36;;;;;;;10.55;2.35;;;;;;;13.91;67.17;100184.28;4969313;28;20042;-83
2023/03/24 11:31:06;;;;;;;8.65;2.35;;;;;;;13.84;66.61;100175.28;4968517;28;20031;-84
2023/03/24 11:33:35;;;;;;;7.93;2.13;;;;;;;13.73;67.45;100179.84;4969941;28;20030;-83
2023/03/24 11:36:08;;;;;;;10.73;2.78;;;;;;;13.58;68.70;100191.03;4977353;28;20035;-84